Terminal Aerodrome Forecast
Issued by NWS Charleston, SC

Home | Current Version | Previous Version | Text Only | Print | Product List | Glossary On
Versions: 1 2 3 4 5 6 7 8 9 10 11 12 13 14
000
FTUS42 KCHS 230527
TAFCHS
TAF
KCHS 230527Z 2306/2406 10014G22KT P6SM -SHRA SCT035 BKN100
     FM231400 12018G28KT 5SM SHRA BR SCT015 OVC030
     FM231700 13022G32KT 4SM SHRA BR SCT008 OVC010
     FM232000 13020G30KT 3SM SHRA BR OVC008
     FM240100 13014G22KT 4SM SHRA BR OVC008=

USA.gov is the U.S. government's official web portal to all federal, state and local government web resources and services.